Garden City, Missouri
Current Conditions -  °F | °C
As of 6:55 AM on Friday 19 Dec 2014 (Local Time) from KRCM Reporting Station
Haze Haze  
Wind Chill: 32°   Ceiling: 200
Heat Index: 32°   Visibility: 1.5mi
Dew Point: 32°   Wind: 3mph
Humidity: 100%   Direction: 40°NE
Pressure: 30.26"   Gusts: NA
Location:  38.56°N, 94.19°W
Report Text: KRCM 191255Z AUTO 04003KT 1 1/2SM BR OVC002 00/00 A3026 RMK AO2
Loading
Personal Weather Stations






























Interactive Weather Map New forecast layout! Learn more

10-Day Weather Forecast

Advertisements
Track Severe Weather on mobile